Thomas, South Dakota
Current Conditions -  °F | °C
As of 1:53 PM on Sunday 21 Dec 2014 (Local Time) from KATY Reporting Station
Haze Haze  
Wind Chill: 23°   Ceiling: 300
Heat Index: 32°   Visibility: 2.5mi
Dew Point: 31°   Wind: 13mph
Humidity: 96%   Direction: 160°SSE
Pressure: 29.56"   Gusts: NA
Location:  44.6748°N, 97.2476°W
Report Text: KATY 211953Z AUTO 16011KT 2 1/2SM BR OVC003 00/M01 A2956 RMK AO2 SLP026 T00001006
Loading
Personal Weather Stations






























Interactive Weather Map New forecast layout! Learn more

10-Day Weather Forecast

Advertisements
Track Severe Weather on mobile